sensor_id;sensor_type;location;lat;lon;timestamp;P1;durP1;ratioP1;P2;durP2;ratioP2
74616;SDS011;63123;50.906;4.198;2023-04-12T00:00:45;2.53;;;1.13;;
74616;SDS011;63123;50.906;4.198;2023-04-12T00:03:11;1.40;;;1.05;;
74616;SDS011;63123;50.906;4.198;2023-04-12T00:05:36;1.65;;;1.00;;
74616;SDS011;63123;50.906;4.198;2023-04-12T00:08:02;1.33;;;1.17;;
74616;SDS011;63123;50.906;4.198;2023-04-12T00:10:29;1.90;;;1.13;;
74616;SDS011;63123;50.906;4.198;2023-04-12T00:12:54;1.38;;;0.90;;
74616;SDS011;63123;50.906;4.198;2023-04-12T00:15:20;1.90;;;1.10;;
74616;SDS011;63123;50.906;4.198;2023-04-12T00:17:45;1.85;;;0.80;;
74616;SDS011;63123;50.906;4.198;2023-04-12T00:20:11;2.45;;;0.98;;
74616;SDS011;63123;50.906;4.198;2023-04-12T00:22:40;1.10;;;0.90;;
74616;SDS011;63123;50.906;4.198;2023-04-12T00:25:06;1.38;;;0.98;;
74616;SDS011;63123;50.906;4.198;2023-04-12T00:27:33;2.60;;;1.08;;
74616;SDS011;63123;50.906;4.198;2023-04-12T00:29:59;1.20;;;1.00;;
74616;SDS011;63123;50.906;4.198;2023-04-12T00:32:25;1.65;;;1.00;;
74616;SDS011;63123;50.906;4.198;2023-04-12T00:34:51;1.88;;;1.20;;
74616;SDS011;63123;50.906;4.198;2023-04-12T00:37:17;1.67;;;1.15;;
74616;SDS011;63123;50.906;4.198;2023-04-12T00:39:42;1.30;;;0.80;;
74616;SDS011;63123;50.906;4.198;2023-04-12T00:42:08;1.50;;;0.95;;
74616;SDS011;63123;50.906;4.198;2023-04-12T00:44:33;1.55;;;0.90;;
74616;SDS011;63123;50.906;4.198;2023-04-12T00:46:59;1.73;;;1.10;;
74616;SDS011;63123;50.906;4.198;2023-04-12T00:49:26;1.42;;;1.10;;
74616;SDS011;63123;50.906;4.198;2023-04-12T00:52:02;1.52;;;0.77;;
74616;SDS011;63123;50.906;4.198;2023-04-12T00:54:29;2.15;;;1.10;;
74616;SDS011;63123;50.906;4.198;2023-04-12T00:56:56;2.53;;;1.20;;
74616;SDS011;63123;50.906;4.198;2023-04-12T00:59:22;2.00;;;1.25;;
74616;SDS011;63123;50.906;4.198;2023-04-12T01:01:48;1.25;;;1.02;;
74616;SDS011;63123;50.906;4.198;2023-04-12T01:04:14;1.65;;;0.80;;
74616;SDS011;63123;50.906;4.198;2023-04-12T01:06:57;1.10;;;1.00;;
74616;SDS011;63123;50.906;4.198;2023-04-12T01:12:42;1.73;;;1.25;;
74616;SDS011;63123;50.906;4.198;2023-04-12T01:15:28;1.42;;;0.90;;
74616;SDS011;63123;50.906;4.198;2023-04-12T01:17:59;1.48;;;0.95;;
74616;SDS011;63123;50.906;4.198;2023-04-12T01:20:34;1.77;;;0.93;;
74616;SDS011;63123;50.906;4.198;2023-04-12T01:28:46;1.80;;;0.93;;
74616;SDS011;63123;50.906;4.198;2023-04-12T01:31:17;1.30;;;1.10;;
74616;SDS011;63123;50.906;4.198;2023-04-12T01:33:45;1.88;;;1.08;;
74616;SDS011;63123;50.906;4.198;2023-04-12T01:36:12;1.55;;;1.00;;
74616;SDS011;63123;50.906;4.198;2023-04-12T01:38:40;1.30;;;0.80;;
74616;SDS011;63123;50.906;4.198;2023-04-12T01:41:07;2.17;;;1.40;;
74616;SDS011;63123;50.906;4.198;2023-04-12T01:43:38;1.48;;;1.00;;
74616;SDS011;63123;50.906;4.198;2023-04-12T01:46:06;2.25;;;1.00;;
74616;SDS011;63123;50.906;4.198;2023-04-12T01:48:32;1.85;;;0.90;;
74616;SDS011;63123;50.906;4.198;2023-04-12T01:51:09;1.40;;;1.00;;
74616;SDS011;63123;50.906;4.198;2023-04-12T01:53:56;1.73;;;0.90;;
74616;SDS011;63123;50.906;4.198;2023-04-12T01:56:29;1.27;;;1.00;;
74616;SDS011;63123;50.906;4.198;2023-04-12T01:58:58;1.70;;;0.90;;
74616;SDS011;63123;50.906;4.198;2023-04-12T02:01:26;1.27;;;0.73;;
74616;SDS011;63123;50.906;4.198;2023-04-12T02:03:53;1.25;;;0.73;;
74616;SDS011;63123;50.906;4.198;2023-04-12T02:06:20;0.77;;;0.75;;
74616;SDS011;63123;50.906;4.198;2023-04-12T02:08:46;1.98;;;0.93;;
74616;SDS011;63123;50.906;4.198;2023-04-12T02:11:12;0.90;;;0.80;;
74616;SDS011;63123;50.906;4.198;2023-04-12T02:13:38;1.63;;;1.13;;
74616;SDS011;63123;50.906;4.198;2023-04-12T02:16:04;1.40;;;1.00;;
74616;SDS011;63123;50.906;4.198;2023-04-12T02:18:31;1.17;;;0.90;;
74616;SDS011;63123;50.906;4.198;2023-04-12T02:20:59;0.80;;;0.80;;
74616;SDS011;63123;50.906;4.198;2023-04-12T02:23:25;1.63;;;0.90;;
74616;SDS011;63123;50.906;4.198;2023-04-12T02:25:51;2.03;;;0.90;;
74616;SDS011;63123;50.906;4.198;2023-04-12T02:28:16;2.25;;;1.08;;
74616;SDS011;63123;50.906;4.198;2023-04-12T02:30:42;1.55;;;0.80;;
74616;SDS011;63123;50.906;4.198;2023-04-12T02:33:08;1.52;;;0.88;;
74616;SDS011;63123;50.906;4.198;2023-04-12T02:35:33;1.83;;;0.85;;
74616;SDS011;63123;50.906;4.198;2023-04-12T02:38:03;0.73;;;0.68;;
74616;SDS011;63123;50.906;4.198;2023-04-12T02:40:32;1.17;;;0.73;;
74616;SDS011;63123;50.906;4.198;2023-04-12T02:43:06;1.92;;;1.02;;
74616;SDS011;63123;50.906;4.198;2023-04-12T02:45:32;1.70;;;1.00;;
74616;SDS011;63123;50.906;4.198;2023-04-12T02:47:58;1.30;;;0.82;;
74616;SDS011;63123;50.906;4.198;2023-04-12T02:50:24;1.15;;;0.98;;
74616;SDS011;63123;50.906;4.198;2023-04-12T02:52:49;0.93;;;0.70;;
74616;SDS011;63123;50.906;4.198;2023-04-12T02:55:15;1.17;;;0.77;;
74616;SDS011;63123;50.906;4.198;2023-04-12T02:57:42;1.52;;;1.15;;
74616;SDS011;63123;50.906;4.198;2023-04-12T03:00:09;1.35;;;0.80;;
74616;SDS011;63123;50.906;4.198;2023-04-12T03:02:39;1.45;;;1.25;;
74616;SDS011;63123;50.906;4.198;2023-04-12T03:05:05;1.40;;;0.80;;
74616;SDS011;63123;50.906;4.198;2023-04-12T03:07:31;1.17;;;0.70;;
74616;SDS011;63123;50.906;4.198;2023-04-12T03:09:57;0.70;;;0.60;;
74616;SDS011;63123;50.906;4.198;2023-04-12T03:12:23;1.10;;;0.88;;
74616;SDS011;63123;50.906;4.198;2023-04-12T03:14:48;1.88;;;1.10;;
74616;SDS011;63123;50.906;4.198;2023-04-12T03:17:14;1.33;;;0.90;;
74616;SDS011;63123;50.906;4.198;2023-04-12T03:19:40;1.55;;;0.70;;
74616;SDS011;63123;50.906;4.198;2023-04-12T03:22:05;0.90;;;0.80;;
74616;SDS011;63123;50.906;4.198;2023-04-12T03:24:31;2.35;;;0.80;;
74616;SDS011;63123;50.906;4.198;2023-04-12T03:27:01;0.70;;;0.70;;
74616;SDS011;63123;50.906;4.198;2023-04-12T03:29:28;0.70;;;0.50;;
74616;SDS011;63123;50.906;4.198;2023-04-12T03:31:54;1.05;;;0.65;;
74616;SDS011;63123;50.906;4.198;2023-04-12T03:34:22;1.08;;;0.68;;
74616;SDS011;63123;50.906;4.198;2023-04-12T03:36:48;1.10;;;0.55;;
74616;SDS011;63123;50.906;4.198;2023-04-12T03:39:14;0.70;;;0.70;;
74616;SDS011;63123;50.906;4.198;2023-04-12T03:41:40;0.82;;;0.82;;
74616;SDS011;63123;50.906;4.198;2023-04-12T03:44:06;0.70;;;0.50;;
74616;SDS011;63123;50.906;4.198;2023-04-12T03:46:32;1.52;;;0.88;;
74616;SDS011;63123;50.906;4.198;2023-04-12T03:48:58;1.95;;;0.77;;
74616;SDS011;63123;50.906;4.198;2023-04-12T03:51:23;0.98;;;0.70;;
74616;SDS011;63123;50.906;4.198;2023-04-12T03:53:51;1.05;;;0.68;;
74616;SDS011;63123;50.906;4.198;2023-04-12T03:56:18;1.27;;;0.75;;
74616;SDS011;63123;50.906;4.198;2023-04-12T03:58:45;1.20;;;0.70;;
74616;SDS011;63123;50.906;4.198;2023-04-12T04:01:11;1.23;;;0.68;;
74616;SDS011;63123;50.906;4.198;2023-04-12T04:03:38;1.17;;;0.65;;
74616;SDS011;63123;50.906;4.198;2023-04-12T04:06:05;3.38;;;1.05;;
74616;SDS011;63123;50.906;4.198;2023-04-12T04:08:31;0.85;;;0.70;;
74616;SDS011;63123;50.906;4.198;2023-04-12T04:10:57;0.93;;;0.63;;
74616;SDS011;63123;50.906;4.198;2023-04-12T04:13:24;1.77;;;0.70;;
74616;SDS011;63123;50.906;4.198;2023-04-12T04:15:58;0.77;;;0.60;;
74616;SDS011;63123;50.906;4.198;2023-04-12T04:18:26;1.05;;;0.77;;
74616;SDS011;63123;50.906;4.198;2023-04-12T04:20:52;1.00;;;0.70;;
74616;SDS011;63123;50.906;4.198;2023-04-12T04:23:17;0.70;;;0.50;;
74616;SDS011;63123;50.906;4.198;2023-04-12T04:25:43;0.80;;;0.60;;
74616;SDS011;63123;50.906;4.198;2023-04-12T04:28:09;0.85;;;0.60;;
74616;SDS011;63123;50.906;4.198;2023-04-12T04:30:35;1.58;;;0.80;;
74616;SDS011;63123;50.906;4.198;2023-04-12T04:33:06;0.98;;;0.70;;
74616;SDS011;63123;50.906;4.198;2023-04-12T04:35:32;0.88;;;0.60;;
74616;SDS011;63123;50.906;4.198;2023-04-12T04:37:58;1.20;;;0.73;;
74616;SDS011;63123;50.906;4.198;2023-04-12T04:40:25;0.68;;;0.68;;
74616;SDS011;63123;50.906;4.198;2023-04-12T04:42:51;0.93;;;0.50;;
74616;SDS011;63123;50.906;4.198;2023-04-12T04:45:23;0.77;;;0.70;;
74616;SDS011;63123;50.906;4.198;2023-04-12T04:47:52;0.60;;;0.60;;
74616;SDS011;63123;50.906;4.198;2023-04-12T04:50:19;0.95;;;0.70;;
74616;SDS011;63123;50.906;4.198;2023-04-12T04:52:46;0.82;;;0.63;;
74616;SDS011;63123;50.906;4.198;2023-04-12T04:55:15;1.10;;;0.77;;
74616;SDS011;63123;50.906;4.198;2023-04-12T04:57:45;1.05;;;0.60;;
74616;SDS011;63123;50.906;4.198;2023-04-12T05:00:11;0.60;;;0.55;;
74616;SDS011;63123;50.906;4.198;2023-04-12T05:02:38;0.80;;;0.60;;
74616;SDS011;63123;50.906;4.198;2023-04-12T05:05:06;0.65;;;0.50;;
74616;SDS011;63123;50.906;4.198;2023-04-12T05:07:33;2.05;;;0.63;;
74616;SDS011;63123;50.906;4.198;2023-04-12T05:09:58;1.10;;;0.68;;
74616;SDS011;63123;50.906;4.198;2023-04-12T05:12:24;1.48;;;0.68;;
74616;SDS011;63123;50.906;4.198;2023-04-12T05:14:49;0.80;;;0.65;;
74616;SDS011;63123;50.906;4.198;2023-04-12T05:17:15;1.30;;;0.98;;
74616;SDS011;63123;50.906;4.198;2023-04-12T05:19:42;1.10;;;0.70;;
74616;SDS011;63123;50.906;4.198;2023-04-12T05:22:08;0.82;;;0.60;;
74616;SDS011;63123;50.906;4.198;2023-04-12T05:24:34;1.15;;;0.80;;
74616;SDS011;63123;50.906;4.198;2023-04-12T05:27:00;1.00;;;0.80;;
74616;SDS011;63123;50.906;4.198;2023-04-12T05:29:25;0.73;;;0.60;;
74616;SDS011;63123;50.906;4.198;2023-04-12T05:31:51;1.20;;;0.80;;
74616;SDS011;63123;50.906;4.198;2023-04-12T05:34:17;0.80;;;0.70;;
74616;SDS011;63123;50.906;4.198;2023-04-12T05:36:42;1.00;;;0.90;;
74616;SDS011;63123;50.906;4.198;2023-04-12T05:39:08;0.70;;;0.68;;
74616;SDS011;63123;50.906;4.198;2023-04-12T05:41:34;1.23;;;1.00;;
74616;SDS011;63123;50.906;4.198;2023-04-12T05:43:59;1.38;;;0.80;;
74616;SDS011;63123;50.906;4.198;2023-04-12T05:46:25;1.33;;;0.75;;
74616;SDS011;63123;50.906;4.198;2023-04-12T05:48:50;2.15;;;1.27;;
74616;SDS011;63123;50.906;4.198;2023-04-12T05:51:16;2.55;;;0.88;;
74616;SDS011;63123;50.906;4.198;2023-04-12T05:53:42;1.65;;;0.98;;
74616;SDS011;63123;50.906;4.198;2023-04-12T05:56:07;2.03;;;0.70;;
74616;SDS011;63123;50.906;4.198;2023-04-12T05:58:33;1.40;;;0.77;;
74616;SDS011;63123;50.906;4.198;2023-04-12T06:00:59;1.38;;;0.90;;
74616;SDS011;63123;50.906;4.198;2023-04-12T06:03:24;2.78;;;1.48;;
74616;SDS011;63123;50.906;4.198;2023-04-12T06:05:50;1.23;;;1.13;;
74616;SDS011;63123;50.906;4.198;2023-04-12T06:08:16;1.35;;;0.77;;
74616;SDS011;63123;50.906;4.198;2023-04-12T06:10:42;2.53;;;1.05;;
74616;SDS011;63123;50.906;4.198;2023-04-12T06:13:08;1.20;;;0.98;;
74616;SDS011;63123;50.906;4.198;2023-04-12T06:15:33;0.80;;;0.73;;
74616;SDS011;63123;50.906;4.198;2023-04-12T06:18:00;1.50;;;1.38;;
74616;SDS011;63123;50.906;4.198;2023-04-12T06:20:26;1.05;;;0.95;;
74616;SDS011;63123;50.906;4.198;2023-04-12T06:22:51;1.05;;;0.90;;
74616;SDS011;63123;50.906;4.198;2023-04-12T06:25:17;1.33;;;0.98;;
74616;SDS011;63123;50.906;4.198;2023-04-12T06:27:43;2.33;;;1.00;;
74616;SDS011;63123;50.906;4.198;2023-04-12T06:30:08;1.48;;;0.75;;
74616;SDS011;63123;50.906;4.198;2023-04-12T06:32:34;1.02;;;0.70;;
74616;SDS011;63123;50.906;4.198;2023-04-12T06:35:02;1.42;;;0.80;;
74616;SDS011;63123;50.906;4.198;2023-04-12T06:37:28;1.05;;;0.68;;
74616;SDS011;63123;50.906;4.198;2023-04-12T06:39:54;1.75;;;1.15;;
74616;SDS011;63123;50.906;4.198;2023-04-12T06:42:19;1.20;;;0.90;;
74616;SDS011;63123;50.906;4.198;2023-04-12T06:44:45;1.65;;;0.82;;
74616;SDS011;63123;50.906;4.198;2023-04-12T06:47:11;1.98;;;0.98;;
74616;SDS011;63123;50.906;4.198;2023-04-12T06:49:37;1.83;;;0.75;;
74616;SDS011;63123;50.906;4.198;2023-04-12T06:52:02;1.58;;;1.10;;
74616;SDS011;63123;50.906;4.198;2023-04-12T06:54:28;0.90;;;0.73;;
74616;SDS011;63123;50.906;4.198;2023-04-12T06:56:53;2.30;;;0.93;;
74616;SDS011;63123;50.906;4.198;2023-04-12T06:59:21;1.20;;;0.90;;
74616;SDS011;63123;50.906;4.198;2023-04-12T07:01:46;1.17;;;0.70;;
74616;SDS011;63123;50.906;4.198;2023-04-12T07:04:12;1.77;;;1.13;;
74616;SDS011;63123;50.906;4.198;2023-04-12T07:06:38;1.48;;;1.15;;
74616;SDS011;63123;50.906;4.198;2023-04-12T07:09:03;2.08;;;0.95;;
74616;SDS011;63123;50.906;4.198;2023-04-12T07:11:29;1.58;;;1.00;;
74616;SDS011;63123;50.906;4.198;2023-04-12T07:13:55;1.02;;;0.88;;
74616;SDS011;63123;50.906;4.198;2023-04-12T07:16:23;1.75;;;1.20;;
74616;SDS011;63123;50.906;4.198;2023-04-12T07:18:48;1.83;;;0.95;;
74616;SDS011;63123;50.906;4.198;2023-04-12T07:21:14;3.15;;;1.25;;
74616;SDS011;63123;50.906;4.198;2023-04-12T07:23:41;2.05;;;1.30;;
74616;SDS011;63123;50.906;4.198;2023-04-12T07:26:08;1.85;;;1.00;;
74616;SDS011;63123;50.906;4.198;2023-04-12T07:28:33;2.70;;;1.00;;
74616;SDS011;63123;50.906;4.198;2023-04-12T07:31:06;3.50;;;1.10;;
74616;SDS011;63123;50.906;4.198;2023-04-12T07:33:31;2.03;;;0.98;;
74616;SDS011;63123;50.906;4.198;2023-04-12T07:35:59;1.25;;;0.80;;
74616;SDS011;63123;50.906;4.198;2023-04-12T07:38:25;2.20;;;1.10;;
74616;SDS011;63123;50.906;4.198;2023-04-12T07:40:51;1.95;;;0.95;;
74616;SDS011;63123;50.906;4.198;2023-04-12T07:43:18;1.70;;;1.00;;
74616;SDS011;63123;50.906;4.198;2023-04-12T07:45:43;1.58;;;0.73;;
74616;SDS011;63123;50.906;4.198;2023-04-12T07:48:09;1.73;;;0.70;;
74616;SDS011;63123;50.906;4.198;2023-04-12T07:50:36;2.25;;;1.02;;
74616;SDS011;63123;50.906;4.198;2023-04-12T07:55:48;2.42;;;1.27;;
74616;SDS011;63123;50.906;4.198;2023-04-12T07:58:15;2.40;;;0.95;;
74616;SDS011;63123;50.906;4.198;2023-04-12T08:00:41;1.80;;;1.00;;
74616;SDS011;63123;50.906;4.198;2023-04-12T08:03:07;2.33;;;1.10;;
74616;SDS011;63123;50.906;4.198;2023-04-12T08:05:33;2.28;;;1.60;;
74616;SDS011;63123;50.906;4.198;2023-04-12T08:07:59;3.53;;;1.38;;
74616;SDS011;63123;50.906;4.198;2023-04-12T08:10:24;2.92;;;1.10;;
74616;SDS011;63123;50.906;4.198;2023-04-12T08:12:50;2.55;;;1.20;;
74616;SDS011;63123;50.906;4.198;2023-04-12T08:15:16;4.20;;;1.73;;
74616;SDS011;63123;50.906;4.198;2023-04-12T08:17:42;4.93;;;1.42;;
74616;SDS011;63123;50.906;4.198;2023-04-12T08:20:08;1.95;;;1.10;;
74616;SDS011;63123;50.906;4.198;2023-04-12T08:22:34;3.17;;;1.20;;
74616;SDS011;63123;50.906;4.198;2023-04-12T08:24:59;3.80;;;1.20;;
74616;SDS011;63123;50.906;4.198;2023-04-12T08:27:26;4.88;;;1.20;;
74616;SDS011;63123;50.906;4.198;2023-04-12T08:29:53;3.75;;;1.50;;
74616;SDS011;63123;50.906;4.198;2023-04-12T08:32:18;3.33;;;1.10;;
74616;SDS011;63123;50.906;4.198;2023-04-12T08:34:44;4.20;;;1.80;;
74616;SDS011;63123;50.906;4.198;2023-04-12T08:37:10;2.70;;;1.50;;
74616;SDS011;63123;50.906;4.198;2023-04-12T08:39:35;3.92;;;1.08;;
74616;SDS011;63123;50.906;4.198;2023-04-12T08:42:01;3.92;;;1.17;;
74616;SDS011;63123;50.906;4.198;2023-04-12T08:44:36;2.72;;;1.60;;
74616;SDS011;63123;50.906;4.198;2023-04-12T08:47:03;3.03;;;1.10;;
74616;SDS011;63123;50.906;4.198;2023-04-12T08:49:31;2.75;;;1.35;;
74616;SDS011;63123;50.906;4.198;2023-04-12T08:52:04;3.28;;;1.30;;
74616;SDS011;63123;50.906;4.198;2023-04-12T08:54:32;4.22;;;1.10;;
74616;SDS011;63123;50.906;4.198;2023-04-12T08:57:06;3.15;;;1.30;;
74616;SDS011;63123;50.906;4.198;2023-04-12T08:59:35;2.95;;;1.20;;
74616;SDS011;63123;50.906;4.198;2023-04-12T09:02:02;4.20;;;1.85;;
74616;SDS011;63123;50.906;4.198;2023-04-12T09:04:27;2.75;;;1.38;;
74616;SDS011;63123;50.906;4.198;2023-04-12T09:06:53;2.92;;;1.23;;
74616;SDS011;63123;50.906;4.198;2023-04-12T09:09:38;4.80;;;2.13;;
74616;SDS011;63123;50.906;4.198;2023-04-12T09:12:11;2.30;;;1.30;;
74616;SDS011;63123;50.906;4.198;2023-04-12T09:14:38;4.65;;;1.45;;
74616;SDS011;63123;50.906;4.198;2023-04-12T09:17:05;3.63;;;1.30;;
74616;SDS011;63123;50.906;4.198;2023-04-12T09:19:50;1.48;;;1.20;;
74616;SDS011;63123;50.906;4.198;2023-04-12T09:22:16;3.00;;;1.20;;
74616;SDS011;63123;50.906;4.198;2023-04-12T09:24:48;3.90;;;1.20;;
74616;SDS011;63123;50.906;4.198;2023-04-12T09:27:17;2.15;;;1.52;;
74616;SDS011;63123;50.906;4.198;2023-04-12T09:29:46;2.55;;;1.27;;
74616;SDS011;63123;50.906;4.198;2023-04-12T09:32:23;2.53;;;1.20;;
74616;SDS011;63123;50.906;4.198;2023-04-12T09:34:57;3.33;;;1.60;;
74616;SDS011;63123;50.906;4.198;2023-04-12T09:37:25;2.97;;;1.52;;
74616;SDS011;63123;50.906;4.198;2023-04-12T09:40:00;4.25;;;1.40;;
74616;SDS011;63123;50.906;4.198;2023-04-12T09:42:34;3.72;;;1.50;;
74616;SDS011;63123;50.906;4.198;2023-04-12T09:45:20;3.05;;;1.17;;
74616;SDS011;63123;50.906;4.198;2023-04-12T09:47:48;2.85;;;1.52;;
74616;SDS011;63123;50.906;4.198;2023-04-12T09:50:20;2.47;;;1.20;;
74616;SDS011;63123;50.906;4.198;2023-04-12T09:52:58;3.05;;;1.40;;
74616;SDS011;63123;50.906;4.198;2023-04-12T09:55:25;2.42;;;1.30;;
74616;SDS011;63123;50.906;4.198;2023-04-12T09:57:53;2.65;;;1.52;;
74616;SDS011;63123;50.906;4.198;2023-04-12T10:00:23;2.53;;;1.40;;
74616;SDS011;63123;50.906;4.198;2023-04-12T10:02:51;4.28;;;1.48;;
74616;SDS011;63123;50.906;4.198;2023-04-12T10:05:19;3.47;;;1.20;;
74616;SDS011;63123;50.906;4.198;2023-04-12T10:07:46;2.80;;;1.23;;
74616;SDS011;63123;50.906;4.198;2023-04-12T10:10:13;3.28;;;1.48;;
74616;SDS011;63123;50.906;4.198;2023-04-12T10:12:40;2.90;;;1.25;;
74616;SDS011;63123;50.906;4.198;2023-04-12T10:15:07;3.13;;;1.60;;
74616;SDS011;63123;50.906;4.198;2023-04-12T10:17:41;4.13;;;1.38;;
74616;SDS011;63123;50.906;4.198;2023-04-12T10:20:12;2.75;;;1.65;;
74616;SDS011;63123;50.906;4.198;2023-04-12T10:22:43;2.67;;;1.60;;
74616;SDS011;63123;50.906;4.198;2023-04-12T10:25:14;2.75;;;1.30;;
74616;SDS011;63123;50.906;4.198;2023-04-12T10:27:50;2.22;;;1.30;;
74616;SDS011;63123;50.906;4.198;2023-04-12T10:30:26;3.88;;;1.55;;
74616;SDS011;63123;50.906;4.198;2023-04-12T10:38:16;2.95;;;1.73;;
74616;SDS011;63123;50.906;4.198;2023-04-12T10:43:39;2.28;;;1.13;;
74616;SDS011;63123;50.906;4.198;2023-04-12T10:46:06;1.45;;;1.35;;
74616;SDS011;63123;50.906;4.198;2023-04-12T10:48:36;4.40;;;1.50;;
74616;SDS011;63123;50.906;4.198;2023-04-12T10:51:15;2.88;;;1.20;;
74616;SDS011;63123;50.906;4.198;2023-04-12T10:53:47;3.88;;;1.30;;
74616;SDS011;63123;50.906;4.198;2023-04-12T10:56:56;2.92;;;1.85;;
74616;SDS011;63123;50.906;4.198;2023-04-12T10:59:03;3.38;;;1.70;;
74616;SDS011;63123;50.906;4.198;2023-04-12T11:01:33;2.30;;;1.00;;
74616;SDS011;63123;50.906;4.198;2023-04-12T11:04:06;3.70;;;1.52;;
74616;SDS011;63123;50.906;4.198;2023-04-12T11:06:47;2.80;;;1.45;;
74616;SDS011;63123;50.906;4.198;2023-04-12T11:09:36;2.13;;;1.40;;
74616;SDS011;63123;50.906;4.198;2023-04-12T11:14:34;3.08;;;1.30;;
74616;SDS011;63123;50.906;4.198;2023-04-12T11:17:23;2.83;;;1.30;;
74616;SDS011;63123;50.906;4.198;2023-04-12T11:19:50;3.35;;;1.50;;
74616;SDS011;63123;50.906;4.198;2023-04-12T11:22:17;2.65;;;1.45;;
74616;SDS011;63123;50.906;4.198;2023-04-12T11:24:45;3.92;;;1.48;;
74616;SDS011;63123;50.906;4.198;2023-04-12T11:27:19;3.67;;;1.52;;
74616;SDS011;63123;50.906;4.198;2023-04-12T11:29:49;2.83;;;1.40;;
74616;SDS011;63123;50.906;4.198;2023-04-12T11:32:24;4.05;;;1.40;;
74616;SDS011;63123;50.906;4.198;2023-04-12T11:34:52;2.22;;;1.58;;
74616;SDS011;63123;50.906;4.198;2023-04-12T11:37:20;2.05;;;1.23;;
74616;SDS011;63123;50.906;4.198;2023-04-12T11:39:48;2.78;;;1.30;;
74616;SDS011;63123;50.906;4.198;2023-04-12T11:42:17;2.67;;;1.15;;
74616;SDS011;63123;50.906;4.198;2023-04-12T11:44:44;2.13;;;1.10;;
74616;SDS011;63123;50.906;4.198;2023-04-12T11:47:20;4.50;;;1.48;;
74616;SDS011;63123;50.906;4.198;2023-04-12T11:49:54;3.22;;;1.38;;
74616;SDS011;63123;50.906;4.198;2023-04-12T11:52:26;1.52;;;1.15;;
74616;SDS011;63123;50.906;4.198;2023-04-12T11:54:53;2.10;;;1.40;;
74616;SDS011;63123;50.906;4.198;2023-04-12T11:57:22;3.42;;;1.60;;
74616;SDS011;63123;50.906;4.198;2023-04-12T11:59:48;1.35;;;0.98;;
74616;SDS011;63123;50.906;4.198;2023-04-12T12:02:15;3.00;;;1.55;;
74616;SDS011;63123;50.906;4.198;2023-04-12T12:04:45;2.92;;;1.42;;
74616;SDS011;63123;50.906;4.198;2023-04-12T12:07:13;1.58;;;1.25;;
74616;SDS011;63123;50.906;4.198;2023-04-12T12:09:40;4.13;;;1.50;;
74616;SDS011;63123;50.906;4.198;2023-04-12T12:12:08;2.95;;;1.10;;
74616;SDS011;63123;50.906;4.198;2023-04-12T12:14:35;2.42;;;1.10;;
74616;SDS011;63123;50.906;4.198;2023-04-12T12:17:01;1.52;;;1.20;;
74616;SDS011;63123;50.906;4.198;2023-04-12T12:19:35;1.88;;;1.20;;
74616;SDS011;63123;50.906;4.198;2023-04-12T12:22:06;2.22;;;1.15;;
74616;SDS011;63123;50.906;4.198;2023-04-12T12:24:37;3.45;;;1.23;;
74616;SDS011;63123;50.906;4.198;2023-04-12T12:27:03;2.38;;;1.25;;
74616;SDS011;63123;50.906;4.198;2023-04-12T12:29:36;2.15;;;1.00;;
74616;SDS011;63123;50.906;4.198;2023-04-12T12:32:08;1.90;;;1.30;;
74616;SDS011;63123;50.906;4.198;2023-04-12T12:34:35;2.38;;;1.05;;
74616;SDS011;63123;50.906;4.198;2023-04-12T12:37:01;1.98;;;1.20;;
74616;SDS011;63123;50.906;4.198;2023-04-12T12:39:27;2.10;;;1.20;;
74616;SDS011;63123;50.906;4.198;2023-04-12T12:41:53;2.78;;;1.30;;
74616;SDS011;63123;50.906;4.198;2023-04-12T12:44:22;2.05;;;1.00;;
74616;SDS011;63123;50.906;4.198;2023-04-12T12:46:48;1.50;;;0.90;;
74616;SDS011;63123;50.906;4.198;2023-04-12T12:49:15;3.65;;;1.50;;
74616;SDS011;63123;50.906;4.198;2023-04-12T12:51:41;2.05;;;0.98;;
74616;SDS011;63123;50.906;4.198;2023-04-12T12:54:07;1.75;;;1.10;;
74616;SDS011;63123;50.906;4.198;2023-04-12T12:56:33;1.92;;;1.35;;
74616;SDS011;63123;50.906;4.198;2023-04-12T12:59:01;2.53;;;1.25;;
74616;SDS011;63123;50.906;4.198;2023-04-12T13:01:27;3.55;;;1.30;;
74616;SDS011;63123;50.906;4.198;2023-04-12T13:03:52;2.05;;;1.17;;
74616;SDS011;63123;50.906;4.198;2023-04-12T13:06:18;1.88;;;1.02;;
74616;SDS011;63123;50.906;4.198;2023-04-12T13:08:44;3.03;;;1.20;;
74616;SDS011;63123;50.906;4.198;2023-04-12T13:11:10;1.77;;;1.17;;
74616;SDS011;63123;50.906;4.198;2023-04-12T13:13:36;3.40;;;1.17;;
74616;SDS011;63123;50.906;4.198;2023-04-12T13:16:01;2.38;;;0.98;;
74616;SDS011;63123;50.906;4.198;2023-04-12T13:18:27;2.22;;;1.20;;
74616;SDS011;63123;50.906;4.198;2023-04-12T13:20:52;2.22;;;1.20;;
74616;SDS011;63123;50.906;4.198;2023-04-12T13:23:18;1.42;;;1.10;;
74616;SDS011;63123;50.906;4.198;2023-04-12T13:25:44;1.92;;;0.80;;
74616;SDS011;63123;50.906;4.198;2023-04-12T13:28:09;1.40;;;1.00;;
74616;SDS011;63123;50.906;4.198;2023-04-12T13:30:36;1.23;;;0.88;;
74616;SDS011;63123;50.906;4.198;2023-04-12T13:33:02;1.73;;;1.08;;
74616;SDS011;63123;50.906;4.198;2023-04-12T13:35:27;2.28;;;0.98;;
74616;SDS011;63123;50.906;4.198;2023-04-12T13:37:53;2.60;;;1.38;;
74616;SDS011;63123;50.906;4.198;2023-04-12T13:40:18;2.03;;;1.10;;
74616;SDS011;63123;50.906;4.198;2023-04-12T13:42:44;2.03;;;1.23;;
74616;SDS011;63123;50.906;4.198;2023-04-12T13:45:10;2.00;;;1.08;;
74616;SDS011;63123;50.906;4.198;2023-04-12T13:47:36;1.42;;;0.90;;
74616;SDS011;63123;50.906;4.198;2023-04-12T13:50:02;3.38;;;1.13;;
74616;SDS011;63123;50.906;4.198;2023-04-12T13:52:28;1.80;;;1.00;;
74616;SDS011;63123;50.906;4.198;2023-04-12T13:54:53;1.95;;;0.90;;
74616;SDS011;63123;50.906;4.198;2023-04-12T13:57:19;1.65;;;1.02;;
74616;SDS011;63123;50.906;4.198;2023-04-12T13:59:45;1.45;;;1.23;;
74616;SDS011;63123;50.906;4.198;2023-04-12T14:02:10;1.58;;;0.90;;
74616;SDS011;63123;50.906;4.198;2023-04-12T14:04:36;1.83;;;1.00;;
74616;SDS011;63123;50.906;4.198;2023-04-12T14:07:17;2.17;;;1.08;;
74616;SDS011;63123;50.906;4.198;2023-04-12T14:09:43;2.13;;;0.95;;
74616;SDS011;63123;50.906;4.198;2023-04-12T14:12:09;1.23;;;0.77;;
74616;SDS011;63123;50.906;4.198;2023-04-12T14:14:35;1.67;;;1.10;;
74616;SDS011;63123;50.906;4.198;2023-04-12T14:17:00;1.50;;;0.80;;
74616;SDS011;63123;50.906;4.198;2023-04-12T14:19:27;2.03;;;1.00;;
74616;SDS011;63123;50.906;4.198;2023-04-12T14:21:52;1.60;;;1.00;;
74616;SDS011;63123;50.906;4.198;2023-04-12T14:24:19;2.20;;;1.25;;
74616;SDS011;63123;50.906;4.198;2023-04-12T14:26:45;1.38;;;0.80;;
74616;SDS011;63123;50.906;4.198;2023-04-12T14:29:12;1.92;;;0.93;;
74616;SDS011;63123;50.906;4.198;2023-04-12T14:31:38;1.40;;;0.80;;
74616;SDS011;63123;50.906;4.198;2023-04-12T14:34:03;0.85;;;0.73;;
74616;SDS011;63123;50.906;4.198;2023-04-12T14:36:30;1.65;;;0.98;;
74616;SDS011;63123;50.906;4.198;2023-04-12T14:38:57;1.40;;;0.93;;
74616;SDS011;63123;50.906;4.198;2023-04-12T14:41:22;1.92;;;0.95;;
74616;SDS011;63123;50.906;4.198;2023-04-12T14:43:48;0.95;;;0.77;;
74616;SDS011;63123;50.906;4.198;2023-04-12T14:46:15;2.35;;;0.90;;
74616;SDS011;63123;50.906;4.198;2023-04-12T14:48:41;1.77;;;0.90;;
74616;SDS011;63123;50.906;4.198;2023-04-12T14:51:08;2.13;;;0.85;;
74616;SDS011;63123;50.906;4.198;2023-04-12T14:53:34;2.00;;;0.90;;
74616;SDS011;63123;50.906;4.198;2023-04-12T14:55:59;2.30;;;0.93;;
74616;SDS011;63123;50.906;4.198;2023-04-12T14:58:26;0.90;;;0.65;;
74616;SDS011;63123;50.906;4.198;2023-04-12T15:00:53;1.00;;;0.80;;
74616;SDS011;63123;50.906;4.198;2023-04-12T15:03:19;2.05;;;0.85;;
74616;SDS011;63123;50.906;4.198;2023-04-12T15:05:45;1.25;;;0.80;;
74616;SDS011;63123;50.906;4.198;2023-04-12T15:08:11;1.73;;;0.70;;
74616;SDS011;63123;50.906;4.198;2023-04-12T15:10:36;0.85;;;0.65;;
74616;SDS011;63123;50.906;4.198;2023-04-12T15:13:02;1.13;;;0.80;;